sensor_id;sensor_type;location;lat;lon;timestamp;pressure;altitude;pressure_sealevel;temperature;humidity
25560;BME280;13450;49.374;8.584;2022-10-31T00:00:19;100958.22;;;11.88;100.00
25560;BME280;13450;49.374;8.584;2022-10-31T00:02:44;100956.91;;;11.84;100.00
25560;BME280;13450;49.374;8.584;2022-10-31T00:05:09;100947.19;;;11.83;100.00
25560;BME280;13450;49.374;8.584;2022-10-31T00:07:37;100948.22;;;11.82;100.00
25560;BME280;13450;49.374;8.584;2022-10-31T00:10:03;100956.91;;;11.84;100.00
25560;BME280;13450;49.374;8.584;2022-10-31T00:12:28;100948.84;;;11.84;100.00
25560;BME280;13450;49.374;8.584;2022-10-31T00:14:54;100959.88;;;11.89;100.00
25560;BME280;13450;49.374;8.584;2022-10-31T00:17:19;100949.13;;;11.89;100.00
25560;BME280;13450;49.374;8.584;2022-10-31T00:19:44;100948.78;;;11.93;100.00
25560;BME280;13450;49.374;8.584;2022-10-31T00:22:12;100948.59;;;11.94;100.00
25560;BME280;13450;49.374;8.584;2022-10-31T00:24:38;100944.81;;;11.88;100.00
25560;BME280;13450;49.374;8.584;2022-10-31T00:27:03;100941.16;;;11.81;100.00
25560;BME280;13450;49.374;8.584;2022-10-31T00:29:28;100943.84;;;11.81;100.00
25560;BME280;13450;49.374;8.584;2022-10-31T00:31:53;100946.91;;;11.78;100.00
25560;BME280;13450;49.374;8.584;2022-10-31T00:34:19;100958.44;;;11.78;100.00
25560;BME280;13450;49.374;8.584;2022-10-31T00:36:44;100953.47;;;11.75;100.00
25560;BME280;13450;49.374;8.584;2022-10-31T00:39:09;100948.00;;;11.69;100.00
25560;BME280;13450;49.374;8.584;2022-10-31T00:41:35;100952.69;;;11.67;100.00
25560;BME280;13450;49.374;8.584;2022-10-31T00:44:00;100958.03;;;11.67;100.00
25560;BME280;13450;49.374;8.584;2022-10-31T00:46:25;100960.09;;;11.64;100.00
25560;BME280;13450;49.374;8.584;2022-10-31T00:48:51;100954.06;;;11.62;100.00
25560;BME280;13450;49.374;8.584;2022-10-31T00:51:16;100958.47;;;11.55;100.00
25560;BME280;13450;49.374;8.584;2022-10-31T00:53:44;100963.84;;;11.55;100.00
25560;BME280;13450;49.374;8.584;2022-10-31T00:56:12;100955.81;;;11.55;100.00
25560;BME280;13450;49.374;8.584;2022-10-31T00:58:37;100953.81;;;11.49;100.00
25560;BME280;13450;49.374;8.584;2022-10-31T01:01:03;100965.22;;;11.51;100.00
25560;BME280;13450;49.374;8.584;2022-10-31T01:03:31;100961.88;;;11.49;100.00
25560;BME280;13450;49.374;8.584;2022-10-31T01:06:04;100954.53;;;11.43;100.00
25560;BME280;13450;49.374;8.584;2022-10-31T01:08:36;100958.72;;;11.45;100.00
25560;BME280;13450;49.374;8.584;2022-10-31T01:11:23;100969.44;;;11.45;100.00
25560;BME280;13450;49.374;8.584;2022-10-31T01:13:53;100963.09;;;11.38;100.00
25560;BME280;13450;49.374;8.584;2022-10-31T01:16:21;100954.72;;;11.41;100.00
25560;BME280;13450;49.374;8.584;2022-10-31T01:18:47;100967.28;;;11.41;100.00
25560;BME280;13450;49.374;8.584;2022-10-31T01:21:18;100967.66;;;11.37;100.00
25560;BME280;13450;49.374;8.584;2022-10-31T01:23:44;100970.66;;;11.34;100.00
25560;BME280;13450;49.374;8.584;2022-10-31T01:26:13;100972.88;;;11.31;100.00
25560;BME280;13450;49.374;8.584;2022-10-31T01:28:49;100965.69;;;11.23;100.00
25560;BME280;13450;49.374;8.584;2022-10-31T01:31:17;100969.75;;;11.19;100.00
25560;BME280;13450;49.374;8.584;2022-10-31T01:33:42;100973.44;;;11.18;100.00
25560;BME280;13450;49.374;8.584;2022-10-31T01:36:31;100970.94;;;11.16;100.00
25560;BME280;13450;49.374;8.584;2022-10-31T01:38:59;100969.28;;;11.15;100.00
25560;BME280;13450;49.374;8.584;2022-10-31T01:41:27;100976.50;;;11.15;100.00
25560;BME280;13450;49.374;8.584;2022-10-31T01:46:33;100969.28;;;11.15;100.00
25560;BME280;13450;49.374;8.584;2022-10-31T01:49:02;100963.44;;;11.11;100.00
25560;BME280;13450;49.374;8.584;2022-10-31T01:51:33;100966.75;;;11.14;100.00
25560;BME280;13450;49.374;8.584;2022-10-31T01:54:12;100961.06;;;11.17;100.00
25560;BME280;13450;49.374;8.584;2022-10-31T01:56:43;100957.38;;;11.18;100.00
25560;BME280;13450;49.374;8.584;2022-10-31T01:59:11;100967.06;;;11.19;100.00
25560;BME280;13450;49.374;8.584;2022-10-31T02:01:38;100962.25;;;11.14;100.00
25560;BME280;13450;49.374;8.584;2022-10-31T02:04:04;100962.25;;;11.14;100.00
25560;BME280;13450;49.374;8.584;2022-10-31T02:06:36;100959.41;;;11.16;100.00
25560;BME280;13450;49.374;8.584;2022-10-31T02:09:07;100959.41;;;11.16;100.00
25560;BME280;13450;49.374;8.584;2022-10-31T02:11:34;100962.72;;;11.18;100.00
25560;BME280;13450;49.374;8.584;2022-10-31T02:14:01;100955.06;;;11.15;100.00
25560;BME280;13450;49.374;8.584;2022-10-31T02:16:27;100951.88;;;11.11;100.00
25560;BME280;13450;49.374;8.584;2022-10-31T02:18:55;100962.59;;;11.11;100.00
25560;BME280;13450;49.374;8.584;2022-10-31T02:21:34;100953.53;;;11.12;100.00
25560;BME280;13450;49.374;8.584;2022-10-31T02:30:14;100954.44;;;11.04;100.00
25560;BME280;13450;49.374;8.584;2022-10-31T02:33:30;100952.59;;;11.05;100.00
25560;BME280;13450;49.374;8.584;2022-10-31T02:38:25;100943.06;;;11.02;100.00
25560;BME280;13450;49.374;8.584;2022-10-31T02:40:56;100941.41;;;11.01;100.00
25560;BME280;13450;49.374;8.584;2022-10-31T02:46:21;100939.25;;;10.96;100.00
25560;BME280;13450;49.374;8.584;2022-10-31T02:48:51;100940.09;;;10.97;100.00
25560;BME280;13450;49.374;8.584;2022-10-31T02:51:17;100940.25;;;10.95;100.00
25560;BME280;13450;49.374;8.584;2022-10-31T02:53:43;100941.06;;;10.96;100.00
25560;BME280;13450;49.374;8.584;2022-10-31T02:56:13;100937.41;;;10.97;100.00
25560;BME280;13450;49.374;8.584;2022-10-31T02:58:49;100937.91;;;10.92;100.00
25560;BME280;13450;49.374;8.584;2022-10-31T03:04:16;100933.75;;;10.90;100.00
25560;BME280;13450;49.374;8.584;2022-10-31T03:06:59;100934.78;;;10.89;100.00
25560;BME280;13450;49.374;8.584;2022-10-31T03:09:33;100938.09;;;10.91;100.00
25560;BME280;13450;49.374;8.584;2022-10-31T03:14:43;100934.47;;;10.83;100.00
25560;BME280;13450;49.374;8.584;2022-10-31T03:17:19;100944.84;;;10.78;100.00
25560;BME280;13450;49.374;8.584;2022-10-31T03:19:47;100942.88;;;10.72;100.00
25560;BME280;13450;49.374;8.584;2022-10-31T03:22:25;100944.38;;;10.66;100.00
25560;BME280;13450;49.374;8.584;2022-10-31T03:24:54;100941.91;;;10.65;100.00
25560;BME280;13450;49.374;8.584;2022-10-31T03:27:24;100937.22;;;10.67;100.00
25560;BME280;13450;49.374;8.584;2022-10-31T03:29:52;100936.19;;;10.68;100.00
25560;BME280;13450;49.374;8.584;2022-10-31T03:32:32;100943.22;;;10.69;100.00
25560;BME280;13450;49.374;8.584;2022-10-31T03:35:00;100938.56;;;10.63;100.00
25560;BME280;13450;49.374;8.584;2022-10-31T03:37:29;100932.03;;;10.65;100.00
25560;BME280;13450;49.374;8.584;2022-10-31T03:39:56;100940.72;;;10.67;100.00
25560;BME280;13450;49.374;8.584;2022-10-31T03:42:26;100938.22;;;10.66;100.00
25560;BME280;13450;49.374;8.584;2022-10-31T03:45:14;100942.72;;;10.65;100.00
25560;BME280;13450;49.374;8.584;2022-10-31T03:47:44;100942.59;;;10.58;100.00
25560;BME280;13450;49.374;8.584;2022-10-31T03:50:13;100941.97;;;10.48;100.00
25560;BME280;13450;49.374;8.584;2022-10-31T03:52:47;100937.25;;;10.42;100.00
25560;BME280;13450;49.374;8.584;2022-10-31T03:55:19;100938.94;;;10.43;100.00
25560;BME280;13450;49.374;8.584;2022-10-31T03:58:00;100942.59;;;10.42;100.00
25560;BME280;13450;49.374;8.584;2022-10-31T04:00:30;100939.28;;;10.40;100.00
25560;BME280;13450;49.374;8.584;2022-10-31T04:03:00;100936.63;;;10.31;100.00
25560;BME280;13450;49.374;8.584;2022-10-31T04:05:29;100933.78;;;10.25;100.00
25560;BME280;13450;49.374;8.584;2022-10-31T04:07:57;100933.00;;;10.16;100.00
25560;BME280;13450;49.374;8.584;2022-10-31T04:10:24;100927.97;;;10.13;100.00
25560;BME280;13450;49.374;8.584;2022-10-31T04:12:59;100928.97;;;10.12;100.00
25560;BME280;13450;49.374;8.584;2022-10-31T04:15:26;100926.31;;;10.12;100.00
25560;BME280;13450;49.374;8.584;2022-10-31T04:17:55;100933.00;;;10.16;100.00
25560;BME280;13450;49.374;8.584;2022-10-31T04:20:38;100934.66;;;10.08;100.00
25560;BME280;13450;49.374;8.584;2022-10-31T04:23:24;100932.16;;;10.07;100.00
25560;BME280;13450;49.374;8.584;2022-10-31T04:25:50;100934.00;;;10.06;100.00
25560;BME280;13450;49.374;8.584;2022-10-31T04:28:15;100937.34;;;10.08;100.00
25560;BME280;13450;49.374;8.584;2022-10-31T04:30:41;100934.81;;;10.07;100.00
25560;BME280;13450;49.374;8.584;2022-10-31T04:33:06;100931.19;;;10.00;100.00
25560;BME280;13450;49.374;8.584;2022-10-31T04:35:32;100929.31;;;10.00;100.00
25560;BME280;13450;49.374;8.584;2022-10-31T04:37:57;100927.97;;;9.96;100.00
25560;BME280;13450;49.374;8.584;2022-10-31T04:40:22;100931.03;;;9.93;100.00
25560;BME280;13450;49.374;8.584;2022-10-31T04:42:48;100918.63;;;9.92;100.00
25560;BME280;13450;49.374;8.584;2022-10-31T04:45:13;100926.00;;;9.90;100.00
25560;BME280;13450;49.374;8.584;2022-10-31T04:47:39;100933.69;;;9.93;100.00
25560;BME280;13450;49.374;8.584;2022-10-31T04:50:04;100929.53;;;9.90;100.00
25560;BME280;13450;49.374;8.584;2022-10-31T04:52:30;100936.53;;;9.91;100.00
25560;BME280;13450;49.374;8.584;2022-10-31T04:54:55;100932.00;;;9.92;100.00
25560;BME280;13450;49.374;8.584;2022-10-31T04:57:20;100934.19;;;9.88;100.00
25560;BME280;13450;49.374;8.584;2022-10-31T04:59:50;100937.88;;;9.87;100.00
25560;BME280;13450;49.374;8.584;2022-10-31T05:02:15;100945.03;;;9.87;100.00
25560;BME280;13450;49.374;8.584;2022-10-31T05:04:41;100949.06;;;9.82;100.00
25560;BME280;13450;49.374;8.584;2022-10-31T05:07:06;100948.06;;;9.75;100.00
25560;BME280;13450;49.374;8.584;2022-10-31T05:09:31;100950.72;;;9.67;100.00
25560;BME280;13450;49.374;8.584;2022-10-31T05:11:59;100948.22;;;9.65;100.00
25560;BME280;13450;49.374;8.584;2022-10-31T05:14:24;100949.38;;;9.63;100.00
25560;BME280;13450;49.374;8.584;2022-10-31T05:16:50;100947.72;;;9.62;100.00
25560;BME280;13450;49.374;8.584;2022-10-31T05:19:15;100949.06;;;9.58;100.00
25560;BME280;13450;49.374;8.584;2022-10-31T05:21:40;100947.41;;;9.57;100.00
25560;BME280;13450;49.374;8.584;2022-10-31T05:24:06;100942.72;;;9.59;100.00
25560;BME280;13450;49.374;8.584;2022-10-31T05:26:31;100938.84;;;9.53;100.00
25560;BME280;13450;49.374;8.584;2022-10-31T05:28:56;100929.66;;;9.55;100.00
25560;BME280;13450;49.374;8.584;2022-10-31T05:31:22;100933.03;;;9.58;100.00
25560;BME280;13450;49.374;8.584;2022-10-31T05:33:47;100932.03;;;9.59;100.00
25560;BME280;13450;49.374;8.584;2022-10-31T05:36:13;100926.34;;;9.62;100.00
25560;BME280;13450;49.374;8.584;2022-10-31T05:38:41;100932.34;;;9.64;100.00
25560;BME280;13450;49.374;8.584;2022-10-31T05:41:06;100929.03;;;9.62;100.00
25560;BME280;13450;49.374;8.584;2022-10-31T05:43:31;100935.72;;;9.66;100.00
25560;BME280;13450;49.374;8.584;2022-10-31T05:45:57;100930.69;;;9.63;100.00
25560;BME280;13450;49.374;8.584;2022-10-31T05:48:27;100933.53;;;9.61;100.00
25560;BME280;13450;49.374;8.584;2022-10-31T05:50:53;100932.88;;;9.59;100.00
25560;BME280;13450;49.374;8.584;2022-10-31T05:53:18;100930.84;;;9.61;100.00
25560;BME280;13450;49.374;8.584;2022-10-31T05:55:43;100937.84;;;9.62;100.00
25560;BME280;13450;49.374;8.584;2022-10-31T05:58:10;100923.84;;;9.60;100.00
25560;BME280;13450;49.374;8.584;2022-10-31T06:00:36;100929.19;;;9.60;100.00
25560;BME280;13450;49.374;8.584;2022-10-31T06:03:07;100927.34;;;9.52;100.00
25560;BME280;13450;49.374;8.584;2022-10-31T06:05:35;100920.31;;;9.51;100.00
25560;BME280;13450;49.374;8.584;2022-10-31T06:08:00;100934.53;;;9.52;100.00
25560;BME280;13450;49.374;8.584;2022-10-31T06:10:26;100934.84;;;9.49;100.00
25560;BME280;13450;49.374;8.584;2022-10-31T06:12:51;100927.34;;;9.52;100.00
25560;BME280;13450;49.374;8.584;2022-10-31T06:15:19;100932.69;;;9.52;100.00
25560;BME280;13450;49.374;8.584;2022-10-31T06:17:44;100932.00;;;9.50;100.00
25560;BME280;13450;49.374;8.584;2022-10-31T06:20:10;100942.22;;;9.55;100.00
25560;BME280;13450;49.374;8.584;2022-10-31T06:22:38;100935.88;;;9.56;100.00
25560;BME280;13450;49.374;8.584;2022-10-31T06:25:06;100941.88;;;9.58;100.00
25560;BME280;13450;49.374;8.584;2022-10-31T06:27:31;100938.72;;;9.63;100.00
25560;BME280;13450;49.374;8.584;2022-10-31T06:29:56;100929.34;;;9.67;100.00
25560;BME280;13450;49.374;8.584;2022-10-31T06:32:22;100936.38;;;9.76;100.00
25560;BME280;13450;49.374;8.584;2022-10-31T06:34:48;100942.03;;;9.81;100.00
25560;BME280;13450;49.374;8.584;2022-10-31T06:37:13;100942.19;;;9.88;100.00
25560;BME280;13450;49.374;8.584;2022-10-31T06:39:39;100934.03;;;9.90;100.00
25560;BME280;13450;49.374;8.584;2022-10-31T06:42:05;100928.34;;;9.85;100.00
25560;BME280;13450;49.374;8.584;2022-10-31T06:44:30;100932.69;;;9.86;100.00
25560;BME280;13450;49.374;8.584;2022-10-31T06:46:56;100931.34;;;9.90;100.00
25560;BME280;13450;49.374;8.584;2022-10-31T06:49:21;100933.00;;;9.99;100.00
25560;BME280;13450;49.374;8.584;2022-10-31T06:51:47;100935.66;;;10.07;100.00
25560;BME280;13450;49.374;8.584;2022-10-31T06:54:18;100935.66;;;10.24;100.00
25560;BME280;13450;49.374;8.584;2022-10-31T06:56:46;100933.59;;;10.34;100.00
25560;BME280;13450;49.374;8.584;2022-10-31T06:59:12;100924.25;;;10.47;100.00
25560;BME280;13450;49.374;8.584;2022-10-31T07:01:37;100932.22;;;10.55;100.00
25560;BME280;13450;49.374;8.584;2022-10-31T07:04:03;100937.22;;;10.67;100.00
25560;BME280;13450;49.374;8.584;2022-10-31T07:06:28;100937.66;;;10.79;100.00
25560;BME280;13450;49.374;8.584;2022-10-31T07:08:54;100937.44;;;10.89;100.00
25560;BME280;13450;49.374;8.584;2022-10-31T07:11:19;100935.38;;;10.99;100.00
25560;BME280;13450;49.374;8.584;2022-10-31T07:13:44;100922.78;;;11.08;100.00
25560;BME280;13450;49.374;8.584;2022-10-31T07:16:09;100923.56;;;11.17;100.00
25560;BME280;13450;49.374;8.584;2022-10-31T07:18:39;100927.00;;;11.25;100.00
25560;BME280;13450;49.374;8.584;2022-10-31T07:21:04;100928.81;;;11.33;100.00
25560;BME280;13450;49.374;8.584;2022-10-31T07:23:30;100927.13;;;11.32;100.00
25560;BME280;13450;49.374;8.584;2022-10-31T07:25:58;100929.00;;;11.32;100.00
25560;BME280;13450;49.374;8.584;2022-10-31T07:28:25;100932.88;;;11.29;100.00
25560;BME280;13450;49.374;8.584;2022-10-31T07:30:51;100937.84;;;11.32;100.00
25560;BME280;13450;49.374;8.584;2022-10-31T07:33:17;100943.31;;;11.39;100.00
25560;BME280;13450;49.374;8.584;2022-10-31T07:35:42;100939.78;;;11.47;100.00
25560;BME280;13450;49.374;8.584;2022-10-31T07:38:09;100935.91;;;11.49;100.00
25560;BME280;13450;49.374;8.584;2022-10-31T07:40:35;100935.19;;;11.56;100.00
25560;BME280;13450;49.374;8.584;2022-10-31T07:43:03;100930.28;;;11.59;100.00
25560;BME280;13450;49.374;8.584;2022-10-31T07:45:29;100930.22;;;11.68;100.00
25560;BME280;13450;49.374;8.584;2022-10-31T07:47:54;100942.47;;;11.85;100.00
25560;BME280;13450;49.374;8.584;2022-10-31T07:50:28;100945.75;;;11.96;100.00
25560;BME280;13450;49.374;8.584;2022-10-31T07:53:11;100949.66;;;12.08;100.00
25560;BME280;13450;49.374;8.584;2022-10-31T07:55:37;100946.63;;;12.11;100.00
25560;BME280;13450;49.374;8.584;2022-10-31T07:58:12;100943.50;;;12.23;100.00
25560;BME280;13450;49.374;8.584;2022-10-31T08:00:39;100944.41;;;12.30;100.00
25560;BME280;13450;49.374;8.584;2022-10-31T08:03:06;100941.19;;;12.35;100.00
25560;BME280;13450;49.374;8.584;2022-10-31T08:05:33;100941.09;;;12.28;100.00
25560;BME280;13450;49.374;8.584;2022-10-31T08:07:59;100929.25;;;12.22;100.00
25560;BME280;13450;49.374;8.584;2022-10-31T08:10:25;100939.41;;;12.27;100.00
25560;BME280;13450;49.374;8.584;2022-10-31T08:15:22;100935.44;;;12.38;100.00
25560;BME280;13450;49.374;8.584;2022-10-31T08:17:48;100928.59;;;12.50;100.00
25560;BME280;13450;49.374;8.584;2022-10-31T08:20:13;100929.53;;;12.58;100.00
25560;BME280;13450;49.374;8.584;2022-10-31T08:22:38;100933.41;;;12.70;100.00
25560;BME280;13450;49.374;8.584;2022-10-31T08:25:04;100928.13;;;12.77;100.00
25560;BME280;13450;49.374;8.584;2022-10-31T08:27:29;100921.03;;;12.91;100.00
25560;BME280;13450;49.374;8.584;2022-10-31T08:29:57;100921.78;;;13.00;100.00
25560;BME280;13450;49.374;8.584;2022-10-31T08:32:25;100923.94;;;13.11;100.00
25560;BME280;13450;49.374;8.584;2022-10-31T08:34:50;100925.75;;;13.26;100.00
25560;BME280;13450;49.374;8.584;2022-10-31T08:37:15;100923.84;;;13.41;100.00
25560;BME280;13450;49.374;8.584;2022-10-31T08:39:48;100915.69;;;13.50;100.00
25560;BME280;13450;49.374;8.584;2022-10-31T08:42:13;100914.72;;;13.57;100.00
25560;BME280;13450;49.374;8.584;2022-10-31T08:44:39;100912.28;;;13.63;100.00
25560;BME280;13450;49.374;8.584;2022-10-31T08:47:04;100910.47;;;13.70;100.00
25560;BME280;13450;49.374;8.584;2022-10-31T08:49:30;100916.53;;;13.79;100.00
25560;BME280;13450;49.374;8.584;2022-10-31T08:51:55;100912.88;;;13.86;100.00
25560;BME280;13450;49.374;8.584;2022-10-31T08:54:20;100920.59;;;13.96;100.00
25560;BME280;13450;49.374;8.584;2022-10-31T08:56:46;100913.84;;;14.07;100.00
25560;BME280;13450;49.374;8.584;2022-10-31T08:59:12;100910.81;;;14.17;100.00
25560;BME280;13450;49.374;8.584;2022-10-31T09:01:38;100909.16;;;14.23;100.00
25560;BME280;13450;49.374;8.584;2022-10-31T09:04:04;100908.81;;;14.33;100.00
25560;BME280;13450;49.374;8.584;2022-10-31T09:06:31;100909.28;;;14.43;100.00
25560;BME280;13450;49.374;8.584;2022-10-31T09:08:57;100906.03;;;14.55;100.00
25560;BME280;13450;49.374;8.584;2022-10-31T09:11:25;100909.19;;;14.65;100.00
25560;BME280;13450;49.374;8.584;2022-10-31T09:13:52;100905.28;;;14.74;100.00
25560;BME280;13450;49.374;8.584;2022-10-31T09:16:17;100905.97;;;14.83;100.00
25560;BME280;13450;49.374;8.584;2022-10-31T09:18:42;100902.81;;;14.80;100.00
25560;BME280;13450;49.374;8.584;2022-10-31T09:21:08;100908.25;;;14.86;100.00
25560;BME280;13450;49.374;8.584;2022-10-31T09:23:33;100907.03;;;14.89;100.00
25560;BME280;13450;49.374;8.584;2022-10-31T09:26:00;100903.53;;;15.02;100.00
25560;BME280;13450;49.374;8.584;2022-10-31T09:28:26;100906.06;;;15.17;100.00
25560;BME280;13450;49.374;8.584;2022-10-31T09:30:56;100896.75;;;15.33;100.00
25560;BME280;13450;49.374;8.584;2022-10-31T09:33:22;100900.72;;;15.58;100.00
25560;BME280;13450;49.374;8.584;2022-10-31T09:35:50;100903.59;;;15.76;100.00
25560;BME280;13450;49.374;8.584;2022-10-31T09:38:19;100909.22;;;15.95;100.00
25560;BME280;13450;49.374;8.584;2022-10-31T09:43:50;100894.59;;;16.37;100.00
25560;BME280;13450;49.374;8.584;2022-10-31T09:49:24;100899.16;;;16.43;100.00
25560;BME280;13450;49.374;8.584;2022-10-31T09:52:21;100902.81;;;16.55;100.00
25560;BME280;13450;49.374;8.584;2022-10-31T09:54:52;100890.41;;;16.86;100.00
25560;BME280;13450;49.374;8.584;2022-10-31T09:57:25;100892.63;;;17.10;100.00
25560;BME280;13450;49.374;8.584;2022-10-31T09:59:55;100887.22;;;17.03;100.00
25560;BME280;13450;49.374;8.584;2022-10-31T10:02:30;100888.91;;;16.97;100.00
25560;BME280;13450;49.374;8.584;2022-10-31T10:05:04;100895.69;;;17.13;100.00
25560;BME280;13450;49.374;8.584;2022-10-31T10:13:29;100876.50;;;18.54;100.00
25560;BME280;13450;49.374;8.584;2022-10-31T10:16:00;100874.81;;;19.69;100.00
25560;BME280;13450;49.374;8.584;2022-10-31T10:26:53;100872.75;;;23.15;89.74
25560;BME280;13450;49.374;8.584;2022-10-31T10:29:36;100875.00;;;24.04;83.76
25560;BME280;13450;49.374;8.584;2022-10-31T10:32:26;100865.84;;;24.26;79.06
25560;BME280;13450;49.374;8.584;2022-10-31T10:35:04;100875.25;;;24.56;75.04
25560;BME280;13450;49.374;8.584;2022-10-31T10:37:39;100871.16;;;24.64;74.82
25560;BME280;13450;49.374;8.584;2022-10-31T10:40:13;100864.28;;;24.46;73.85
25560;BME280;13450;49.374;8.584;2022-10-31T10:42:42;100867.28;;;24.44;75.09
25560;BME280;13450;49.374;8.584;2022-10-31T10:45:28;100855.00;;;24.57;75.18
25560;BME280;13450;49.374;8.584;2022-10-31T10:48:26;100854.69;;;23.84;78.09
25560;BME280;13450;49.374;8.584;2022-10-31T10:50:59;100840.38;;;23.29;82.10
25560;BME280;13450;49.374;8.584;2022-10-31T10:54:02;100840.84;;;23.53;82.37
25560;BME280;13450;49.374;8.584;2022-10-31T10:59:20;100836.44;;;23.90;88.08
25560;BME280;13450;49.374;8.584;2022-10-31T11:01:48;100829.94;;;23.53;80.69
25560;BME280;13450;49.374;8.584;2022-10-31T11:04:29;100828.50;;;23.40;80.60
25560;BME280;13450;49.374;8.584;2022-10-31T11:07:00;100829.97;;;23.58;79.95
25560;BME280;13450;49.374;8.584;2022-10-31T11:09:26;100825.53;;;23.47;80.00
25560;BME280;13450;49.374;8.584;2022-10-31T11:11:51;100813.75;;;23.08;83.23
25560;BME280;13450;49.374;8.584;2022-10-31T11:14:17;100803.47;;;23.54;89.40
25560;BME280;13450;49.374;8.584;2022-10-31T11:16:45;100804.56;;;23.20;81.66
25560;BME280;13450;49.374;8.584;2022-10-31T11:21:39;100797.28;;;22.15;86.49
25560;BME280;13450;49.374;8.584;2022-10-31T11:26:33;100788.91;;;21.77;92.27
25560;BME280;13450;49.374;8.584;2022-10-31T11:29:00;100797.03;;;21.72;96.82
25560;BME280;13450;49.374;8.584;2022-10-31T11:31:28;100794.66;;;21.81;95.94
25560;BME280;13450;49.374;8.584;2022-10-31T11:34:01;100788.59;;;21.56;98.32
25560;BME280;13450;49.374;8.584;2022-10-31T11:36:30;100770.84;;;21.32;100.00
25560;BME280;13450;49.374;8.584;2022-10-31T11:38:59;100776.88;;;21.73;98.46
25560;BME280;13450;49.374;8.584;2022-10-31T11:41:25;100775.69;;;21.86;97.75
25560;BME280;13450;49.374;8.584;2022-10-31T11:43:57;100771.81;;;22.04;95.58
25560;BME280;13450;49.374;8.584;2022-10-31T11:48:56;100764.03;;;22.13;94.08
25560;BME280;13450;49.374;8.584;2022-10-31T11:51:34;100764.38;;;22.22;100.00
25560;BME280;13450;49.374;8.584;2022-10-31T11:54:03;100752.94;;;22.20;93.56
25560;BME280;13450;49.374;8.584;2022-10-31T11:56:40;100745.50;;;21.71;100.00
25560;BME280;13450;49.374;8.584;2022-10-31T11:59:18;100744.25;;;21.78;100.00
25560;BME280;13450;49.374;8.584;2022-10-31T12:01:50;100731.00;;;21.65;100.00
25560;BME280;13450;49.374;8.584;2022-10-31T12:04:15;100732.22;;;21.74;97.83
25560;BME280;13450;49.374;8.584;2022-10-31T12:06:44;100733.78;;;21.70;98.66
25560;BME280;13450;49.374;8.584;2022-10-31T12:19:45;100725.34;;;20.75;100.00
25560;BME280;13450;49.374;8.584;2022-10-31T12:25:16;100732.56;;;20.52;100.00
25560;BME280;13450;49.374;8.584;2022-10-31T12:27:52;100728.69;;;20.19;100.00
25560;BME280;13450;49.374;8.584;2022-10-31T12:30:30;100733.31;;;20.19;100.00
25560;BME280;13450;49.374;8.584;2022-10-31T12:36:05;100733.41;;;19.83;100.00
25560;BME280;13450;49.374;8.584;2022-10-31T12:41:31;100713.19;;;19.38;100.00
25560;BME280;13450;49.374;8.584;2022-10-31T12:44:40;100700.13;;;19.23;100.00
25560;BME280;13450;49.374;8.584;2022-10-31T12:55:14;100685.09;;;18.96;100.00
25560;BME280;13450;49.374;8.584;2022-10-31T12:57:53;100666.97;;;19.20;100.00
25560;BME280;13450;49.374;8.584;2022-10-31T13:00:20;100662.75;;;19.66;100.00
25560;BME280;13450;49.374;8.584;2022-10-31T13:02:55;100662.03;;;20.29;100.00
25560;BME280;13450;49.374;8.584;2022-10-31T13:05:30;100656.28;;;20.59;100.00
25560;BME280;13450;49.374;8.584;2022-10-31T13:10:29;100639.97;;;20.59;100.00
25560;BME280;13450;49.374;8.584;2022-10-31T13:13:05;100626.16;;;20.27;100.00
25560;BME280;13450;49.374;8.584;2022-10-31T13:15:38;100618.06;;;19.85;100.00
25560;BME280;13450;49.374;8.584;2022-10-31T13:18:14;100605.91;;;19.59;100.00
25560;BME280;13450;49.374;8.584;2022-10-31T13:20:46;100601.50;;;19.29;100.00
25560;BME280;13450;49.374;8.584;2022-10-31T13:23:19;100601.44;;;19.12;100.00
25560;BME280;13450;49.374;8.584;2022-10-31T13:25:50;100594.13;;;18.88;100.00
25560;BME280;13450;49.374;8.584;2022-10-31T13:31:19;100608.97;;;18.74;100.00
25560;BME280;13450;49.374;8.584;2022-10-31T13:33:49;100611.69;;;18.74;100.00
25560;BME280;13450;49.374;8.584;2022-10-31T13:39:30;100594.06;;;23.01;100.00
25560;BME280;13450;49.374;8.584;2022-10-31T13:44:44;100605.06;;;25.95;78.18
25560;BME280;13450;49.374;8.584;2022-10-31T13:47:28;100625.81;;;25.62;76.09
25560;BME280;13450;49.374;8.584;2022-10-31T13:52:47;100619.59;;;25.40;75.58
25560;BME280;13450;49.374;8.584;2022-10-31T13:56:02;100627.72;;;24.69;79.54
25560;BME280;13450;49.374;8.584;2022-10-31T13:58:29;100630.16;;;23.98;83.81
25560;BME280;13450;49.374;8.584;2022-10-31T14:01:19;100633.66;;;23.72;83.36
25560;BME280;13450;49.374;8.584;2022-10-31T14:03:47;100626.28;;;23.68;84.59
25560;BME280;13450;49.374;8.584;2022-10-31T14:06:22;100619.75;;;23.79;84.55
25560;BME280;13450;49.374;8.584;2022-10-31T14:08:51;100623.53;;;23.57;85.46
25560;BME280;13450;49.374;8.584;2022-10-31T14:11:25;100615.06;;;23.00;91.65
25560;BME280;13450;49.374;8.584;2022-10-31T14:13:54;100615.84;;;22.52;93.95
25560;BME280;13450;49.374;8.584;2022-10-31T14:16:26;100618.06;;;22.23;98.53
25560;BME280;13450;49.374;8.584;2022-10-31T14:26:54;100606.75;;;20.35;100.00
25560;BME280;13450;49.374;8.584;2022-10-31T14:52:36;100570.78;;;18.27;100.00
25560;BME280;13450;49.374;8.584;2022-10-31T15:20:50;100549.34;;;17.22;100.00
25560;BME280;13450;49.374;8.584;2022-10-31T15:31:04;100534.59;;;16.99;100.00
25560;BME280;13450;49.374;8.584;2022-10-31T15:33:32;100533.19;;;16.96;100.00